Time;durP1;ratioP1;P1;durP2;ratioP2;P2;SDS_P1;SDS_P2;PMS_P1;PMS_P2;Temp;Humidity;BMP_temperature;BMP_pressure;BME280_temperature;BME280_humidity;BME280_pressure;Samples;Min_cycle;Max_cycle;Signal;HPM_P1;HPM_P2
2022/03/31 00:01:37;;;;;;;21.73;14.02;;;;;;;5.82;77.67;98738.28;6395133;22;20022;-93
2022/03/31 00:04:21;;;;;;;23.92;16.05;;;;;;;5.88;78.00;98748.44;6393401;22;20061;-93
2022/03/31 00:07:08;;;;;;;23.13;15.65;;;;;;;5.77;77.73;98735.88;6384640;22;20045;-96
2022/03/31 00:10:20;;;;;;;24.35;15.43;;;;;;;5.88;77.80;98744.06;6385440;22;20025;-94
2022/03/31 00:13:10;;;;;;;22.52;14.95;;;;;;;6.29;78.04;98811.94;6385472;22;20103;-91
2022/03/31 00:15:53;;;;;;;20.55;14.80;;;;;;;6.26;77.35;98796.31;6393661;22;20017;-91
2022/03/31 00:18:46;;;;;;;23.55;15.38;;;;;;;6.16;77.06;98764.41;6390583;22;20029;-93
2022/03/31 00:22:04;;;;;;;23.60;15.05;;;;;;;6.37;76.93;98814.97;6347942;22;20034;-92
2022/03/31 00:25:02;;;;;;;26.50;16.17;;;;;;;5.97;76.41;98725.19;6360428;22;20098;-91
2022/03/31 00:28:12;;;;;;;25.35;16.52;;;;;;;6.30;76.47;98805.72;6358504;22;20019;-93
2022/03/31 00:30:49;;;;;;;25.92;16.25;;;;;;;6.05;77.01;98771.19;6354982;22;20042;-94
2022/03/31 00:33:33;;;;;;;25.42;15.82;;;;;;;5.64;76.89;98725.19;6348550;22;20029;-95
2022/03/31 00:37:06;;;;;;;28.27;16.88;;;;;;;5.64;77.78;98740.97;6341962;22;20030;-93
2022/03/31 00:40:04;;;;;;;26.40;16.38;;;;;;;5.68;78.66;98764.41;6356017;22;20026;-96
2022/03/31 00:42:49;;;;;;;25.10;16.55;;;;;;;5.48;77.97;98734.81;6343901;22;20026;-95
2022/03/31 00:45:48;;;;;;;26.33;16.35;;;;;;;5.79;78.91;98794.44;6348146;22;20042;-93
2022/03/31 00:48:34;;;;;;;29.25;16.67;;;;;;;5.81;79.00;98800.47;6356508;22;20018;-91
2022/03/31 00:51:42;;;;;;;26.70;16.35;;;;;;;5.37;78.77;98741.53;6357304;22;20015;-92
2022/03/31 00:54:52;;;;;;;29.17;17.08;;;;;;;5.73;79.59;98794.75;6357300;22;20015;-93
2022/03/31 00:57:46;;;;;;;26.52;16.70;;;;;;;5.62;79.32;98779.56;6355551;22;20015;-94
2022/03/31 01:00:32;;;;;;;27.73;16.55;;;;;;;5.51;79.65;98750.38;6355911;22;20060;-91
2022/03/31 01:03:21;;;;;;;26.45;17.02;;;;;;;5.27;79.44;98707.91;6331592;22;20023;-95
2022/03/31 01:06:16;;;;;;;25.17;15.95;;;;;;;5.77;79.42;98774.44;6334031;22;20090;-95
2022/03/31 01:09:21;;;;;;;26.52;15.75;;;;;;;5.85;79.24;98762.56;6356270;22;20022;-94
2022/03/31 01:12:19;;;;;;;26.13;16.27;;;;;;;5.70;78.83;98755.53;6358726;22;20037;-92
2022/03/31 01:15:53;;;;;;;;;;;;;;;;;;;;;
2022/03/31 01:19:04;;;;;;;26.35;16.30;;;;;;;5.29;79.77;98690.31;6358598;22;20029;-94
2022/03/31 01:21:53;;;;;;;25.10;15.55;;;;;;;5.44;79.69;98695.69;6314220;22;20019;-94
2022/03/31 01:24:40;;;;;;;26.77;17.05;;;;;;;5.42;79.00;98693.13;6323558;22;20007;-94
2022/03/31 01:28:07;;;;;;;;;;;;;;;;;;;;;
2022/03/31 01:31:07;;;;;;;28.42;15.60;;;;;;;5.76;79.12;98744.69;6314455;22;20024;-96
2022/03/31 01:33:53;;;;;;;26.83;16.27;;;;;;;5.60;79.16;98718.41;6328784;22;20007;-92
2022/03/31 01:36:59;;;;;;;25.73;15.77;;;;;;;5.32;78.88;98664.84;6325218;22;20065;-92
2022/03/31 01:39:50;;;;;;;27.05;15.75;;;;;;;5.57;78.44;98718.56;6304316;22;20023;-93
2022/03/31 01:42:46;;;;;;;27.45;16.02;;;;;;;5.77;79.27;98741.16;6325121;22;20026;-93
2022/03/31 01:45:53;;;;;;;;;;;;;;;;;;;;;
2022/03/31 01:48:58;;;;;;;28.10;16.35;;;;;;;5.76;78.74;98744.69;6287192;22;20045;-94
2022/03/31 01:51:48;;;;;;;25.13;15.48;;;;;;;5.41;79.18;98677.47;6326500;22;20023;-93
2022/03/31 01:54:30;;;;;;;26.10;15.85;;;;;;;5.59;78.13;98698.34;6322639;22;20066;-93
2022/03/31 01:57:14;;;;;;;27.90;16.60;;;;;;;5.44;78.14;98675.53;6330964;22;20011;-91
2022/03/31 02:00:02;;;;;;;26.90;16.52;;;;;;;5.35;78.83;98657.66;6331393;22;20007;-92
2022/03/31 02:02:44;;;;;;;26.40;16.70;;;;;;;5.43;78.15;98675.59;6303428;22;20030;-93
2022/03/31 02:08:30;;;;;;;28.33;17.13;;;;;;;5.16;79.61;98665.66;6296766;22;20014;-90
2022/03/31 02:11:14;;;;;;;29.85;17.00;;;;;;;5.10;80.02;98650.22;6334096;22;20014;-92
2022/03/31 02:13:52;;;;;;;27.52;16.70;;;;;;;5.40;79.71;98697.59;6285353;22;20026;-92
2022/03/31 02:19:31;;;;;;;29.33;16.60;;;;;;;5.02;80.06;98647.16;6237462;22;20012;-94
2022/03/31 02:22:19;;;;;;;31.35;16.80;;;;;;;5.09;80.85;98663.41;6233484;23;20025;-94
2022/03/31 02:24:57;;;;;;;30.83;17.27;;;;;;;5.14;80.83;98664.88;6232054;23;20022;-95
2022/03/31 02:27:30;;;;;;;31.50;17.77;;;;;;;5.38;80.10;98698.63;6234076;23;20015;-91
2022/03/31 02:30:34;;;;;;;33.17;18.13;;;;;;;5.46;80.12;98696.44;6294544;22;20047;-94
2022/03/31 02:33:20;;;;;;;30.25;17.42;;;;;;;5.04;80.40;98639.19;6329338;22;20014;-92
2022/03/31 02:36:12;;;;;;;31.85;17.77;;;;;;;5.43;79.70;98699.22;6326849;22;20019;-95
2022/03/31 02:39:05;;;;;;;29.90;16.92;;;;;;;5.49;80.25;98705.00;6300068;22;20031;-94
2022/03/31 02:41:42;;;;;;;32.42;18.80;;;;;;;5.47;79.98;98709.50;6309017;22;20020;-96
2022/03/31 02:44:20;;;;;;;29.50;17.38;;;;;;;5.45;80.31;98707.88;6298486;22;20034;-95
2022/03/31 02:47:09;;;;;;;29.23;17.50;;;;;;;5.17;80.12;98661.25;6308676;22;20028;-94
2022/03/31 02:49:51;;;;;;;32.10;18.88;;;;;;;5.08;80.46;98657.31;6329741;22;20004;-92
2022/03/31 02:52:23;;;;;;;30.90;18.38;;;;;;;5.36;80.87;98698.69;6337406;22;20070;-89
2022/03/31 02:58:04;;;;;;;29.38;16.70;;;;;;;5.25;80.76;98673.03;6269110;22;20026;-90
2022/03/31 03:00:37;;;;;;;31.80;18.88;;;;;;;4.78;81.01;98617.78;6243918;22;20051;-92
2022/03/31 03:03:08;;;;;;;32.10;18.50;;;;;;;4.76;80.97;98613.56;6244393;22;20012;-90
2022/03/31 03:05:51;;;;;;;32.28;18.83;;;;;;;4.72;80.92;98604.16;6268225;22;20008;-89
2022/03/31 03:08:28;;;;;;;30.70;18.58;;;;;;;5.13;81.71;98678.06;6241084;23;20061;-94
2022/03/31 03:11:18;;;;;;;32.70;18.48;;;;;;;4.76;81.52;98617.03;6238294;23;20035;-92
2022/03/31 03:13:53;;;;;;;30.63;17.73;;;;;;;5.16;82.43;98676.16;6234198;23;20032;-93
2022/03/31 03:16:37;;;;;;;32.50;18.75;;;;;;;5.14;81.01;98671.91;6266488;23;20020;-93
2022/03/31 03:19:09;;;;;;;31.00;17.65;;;;;;;4.67;82.19;98598.31;6257322;23;20024;-92
2022/03/31 03:21:46;;;;;;;33.92;18.20;;;;;;;4.78;82.05;98609.06;6262795;23;20022;-93
2022/03/31 03:24:49;;;;;;;31.38;19.02;;;;;;;4.86;82.65;98623.50;6254788;23;20054;-94
2022/03/31 03:27:23;;;;;;;31.02;18.20;;;;;;;4.59;82.47;98581.19;6258815;23;20016;-92
2022/03/31 03:30:06;;;;;;;31.80;17.75;;;;;;;5.09;82.33;98664.25;6237693;23;20016;-94
2022/03/31 03:32:56;;;;;;;31.70;18.55;;;;;;;5.04;83.28;98660.16;6262171;23;20080;-93
2022/03/31 03:35:44;;;;;;;32.95;18.63;;;;;;;5.00;83.19;98656.88;6258878;23;20047;-95
2022/03/31 03:38:27;;;;;;;29.77;18.33;;;;;;;4.50;82.35;98575.56;6256329;23;20082;-94
2022/03/31 03:41:11;;;;;;;32.50;18.33;;;;;;;4.54;82.83;98575.34;6263480;23;20431;-92
2022/03/31 03:43:44;;;;;;;32.20;17.95;;;;;;;4.55;83.49;98578.81;6268772;22;20047;-92
2022/03/31 03:46:14;;;;;;;32.42;18.73;;;;;;;5.01;83.04;98644.63;6269212;22;20058;-91
2022/03/31 03:48:46;;;;;;;33.53;19.08;;;;;;;4.73;83.34;98600.59;6244800;23;20028;-94
2022/03/31 03:51:20;;;;;;;34.55;18.83;;;;;;;4.67;83.60;98593.06;6264572;23;20016;-92
2022/03/31 03:54:04;;;;;;;28.90;17.90;;;;;;;4.71;81.81;98578.88;6267014;23;20044;-93
2022/03/31 03:56:35;;;;;;;32.45;17.92;;;;;;;4.58;81.54;98542.78;6270950;22;20024;-92
2022/03/31 03:59:33;;;;;;;31.13;17.75;;;;;;;4.90;81.92;98598.78;6295566;22;20050;-94
2022/03/31 04:02:20;;;;;;;31.23;18.52;;;;;;;5.01;80.95;98606.13;6298035;22;20071;-92
2022/03/31 04:05:05;;;;;;;32.45;18.17;;;;;;;4.94;81.26;98591.63;6291852;22;20031;-91
2022/03/31 04:07:38;;;;;;;34.20;18.35;;;;;;;4.67;81.09;98551.97;6290699;22;20031;-94
2022/03/31 04:10:26;;;;;;;30.33;18.50;;;;;;;4.89;81.34;98593.63;6289950;22;20046;-92
2022/03/31 04:13:07;;;;;;;32.25;18.23;;;;;;;4.71;81.79;98579.72;6289462;22;20024;-93
2022/03/31 04:15:35;;;;;;;32.53;17.83;;;;;;;4.76;80.98;98587.31;6290916;22;20026;-91
2022/03/31 04:18:05;;;;;;;32.22;18.10;;;;;;;4.41;81.26;98545.44;6292286;22;20345;-92
2022/03/31 04:20:35;;;;;;;31.15;19.05;;;;;;;4.65;81.12;98589.66;6286758;22;20034;-93
2022/03/31 04:23:09;;;;;;;35.78;19.20;;;;;;;4.28;81.48;98540.91;6283463;22;20076;-94
2022/03/31 04:25:59;;;;;;;32.63;18.35;;;;;;;4.22;82.06;98544.69;6267008;22;20026;-92
2022/03/31 04:29:05;;;;;;;33.40;18.75;;;;;;;4.23;82.28;98560.34;6280505;22;20012;-94
2022/03/31 04:31:51;;;;;;;36.50;18.88;;;;;;;4.56;82.35;98615.41;6300387;22;20035;-90
2022/03/31 04:34:34;;;;;;;32.10;18.00;;;;;;;4.12;83.21;98548.69;6298016;22;20031;-91
2022/03/31 04:37:08;;;;;;;32.40;17.52;;;;;;;4.09;83.06;98551.47;6276553;22;20012;-91
2022/03/31 04:39:51;;;;;;;32.30;18.45;;;;;;;3.92;83.19;98527.91;6271789;22;20020;-96
2022/03/31 04:42:33;;;;;;;29.35;18.30;;;;;;;4.34;83.63;98601.72;6290926;22;20079;-95
2022/03/31 04:45:18;;;;;;;36.20;18.80;;;;;;;3.88;83.30;98527.19;6289058;22;20055;-96
2022/03/31 04:47:50;;;;;;;34.58;18.67;;;;;;;3.83;84.44;98519.56;6285204;22;20069;-91
2022/03/31 04:50:34;;;;;;;29.90;18.40;;;;;;;4.16;84.61;98585.13;6259502;22;20099;-92
2022/03/31 04:53:25;;;;;;;37.47;20.70;;;;;;;3.76;84.42;98519.97;6256310;22;20015;-93
2022/03/31 04:56:14;;;;;;;32.83;18.40;;;;;;;3.93;85.03;98553.16;6283380;22;20034;-93
2022/03/31 04:59:17;;;;;;;31.60;18.50;;;;;;;4.04;84.92;98577.91;6234296;23;20023;-95
2022/03/31 05:02:03;;;;;;;34.92;19.40;;;;;;;4.17;84.90;98604.31;6230112;23;20020;-90
2022/03/31 05:04:55;;;;;;;33.87;19.20;;;;;;;4.14;84.77;98599.22;6257504;23;20016;-96
2022/03/31 05:08:05;;;;;;;36.05;19.48;;;;;;;4.03;84.39;98594.53;6234276;23;20454;-93
2022/03/31 05:11:01;;;;;;;33.13;19.67;;;;;;;4.07;84.32;98596.09;6266768;22;20027;-92
2022/03/31 05:13:48;;;;;;;34.38;19.30;;;;;;;4.22;83.96;98618.06;6264663;23;20020;-91
2022/03/31 05:16:42;;;;;;;34.63;19.85;;;;;;;3.85;84.39;98557.00;6264882;23;20020;-92
2022/03/31 05:19:42;;;;;;;32.30;18.92;;;;;;;3.75;84.09;98532.19;6266982;22;20028;-92
2022/03/31 05:22:47;;;;;;;34.03;19.08;;;;;;;4.25;84.95;98617.88;6264813;23;20035;-92
2022/03/31 05:25:50;;;;;;;36.42;20.10;;;;;;;4.25;84.28;98617.88;6263034;22;20047;-93
2022/03/31 05:29:38;;;;;;;37.65;20.10;;;;;;;3.81;84.18;98559.81;6268212;23;20008;-92
2022/03/31 05:32:29;;;;;;;33.58;19.20;;;;;;;3.94;83.31;98560.91;6265326;23;20027;-95
2022/03/31 05:35:16;;;;;;;34.63;19.77;;;;;;;4.01;83.10;98578.03;6253466;23;20020;-93
2022/03/31 05:38:22;;;;;;;33.40;19.17;;;;;;;4.36;82.35;98630.47;6235155;23;20059;-91
2022/03/31 05:41:19;;;;;;;34.22;18.50;;;;;;;3.99;81.36;98564.16;6257305;23;20020;-91
2022/03/31 05:44:02;;;;;;;35.72;19.60;;;;;;;4.34;81.53;98625.28;6256992;23;20044;-95
2022/03/31 05:46:33;;;;;;;35.50;20.35;;;;;;;4.17;81.37;98591.22;6262330;23;20043;-92
2022/03/31 05:49:08;;;;;;;31.38;18.48;;;;;;;3.99;80.89;98558.94;6269770;22;20014;-90
2022/03/31 05:52:04;;;;;;;32.90;18.73;;;;;;;4.13;80.51;98573.97;6267092;22;20030;-91
2022/03/31 05:54:49;;;;;;;32.95;19.20;;;;;;;4.46;81.19;98616.81;6258005;22;20035;-91
2022/03/31 05:57:28;;;;;;;31.90;19.50;;;;;;;4.49;80.60;98616.66;6265290;22;20020;-91
2022/03/31 06:00:03;;;;;;;33.90;18.90;;;;;;;4.24;80.08;98574.28;6267537;22;20068;-91
2022/03/31 06:02:41;;;;;;;31.40;17.50;;;;;;;4.12;79.50;98540.81;6270125;22;20008;-91
2022/03/31 06:05:53;;;;;;;32.17;18.15;;;;;;;4.15;79.34;98545.91;6268630;22;20027;-93
2022/03/31 06:08:47;;;;;;;;;;;;;;;;;;;;;
2022/03/31 06:15:34;;;;;;;31.20;18.52;;;;;;;4.44;78.62;98589.84;6227475;22;20027;-94
2022/03/31 06:18:37;;;;;;;32.10;18.02;;;;;;;4.76;79.21;98617.03;6253264;23;20012;-94
2022/03/31 06:21:50;;;;;;;29.90;18.13;;;;;;;4.41;77.76;98540.19;6263693;23;20020;-93
2022/03/31 06:24:56;;;;;;;33.05;18.27;;;;;;;4.99;77.19;98623.69;6242176;23;20078;-94
2022/03/31 06:28:06;;;;;;;33.75;19.15;;;;;;;4.80;76.85;98588.88;6247730;23;20016;-95
2022/03/31 06:30:58;;;;;;;29.02;17.55;;;;;;;5.08;76.99;98614.50;6258882;23;20505;-95
2022/03/31 06:34:01;;;;;;;;;;;;;;;5.15;75.68;98608.00;6254560;23;20489;-92
2022/03/31 06:37:24;;;;;;;29.65;17.15;;;;;;;5.01;75.22;98577.25;6193502;23;19958;-92
2022/03/31 06:40:02;;;;;;;33.95;18.17;;;;;;;5.24;74.88;98605.72;6207951;23;20071;-95
2022/03/31 06:42:57;;;;;;;31.02;17.48;;;;;;;5.16;75.93;98579.06;6255351;23;20070;-89
2022/03/31 06:45:35;;;;;;;31.08;18.15;;;;;;;4.97;74.61;98535.53;6258036;23;20051;-93
2022/03/31 06:48:21;;;;;;;32.10;17.58;;;;;;;5.28;73.48;98565.28;6260578;23;20023;-92
2022/03/31 06:50:52;;;;;;;31.05;18.40;;;;;;;5.06;72.66;98532.41;6263278;23;20016;-91
2022/03/31 06:53:49;;;;;;;33.00;18.35;;;;;;;5.28;73.08;98567.88;6269396;23;20000;-91
2022/03/31 06:56:59;;;;;;;31.17;18.75;;;;;;;5.58;73.97;98615.25;6269160;22;20008;-92
2022/03/31 06:59:37;;;;;;;29.15;18.63;;;;;;;5.51;73.32;98587.63;6269678;23;20032;-92
2022/03/31 07:02:47;;;;;;;30.52;18.73;;;;;;;5.34;73.22;98548.34;6266336;22;20030;-93
2022/03/31 07:05:29;;;;;;;28.60;17.40;;;;;;;5.47;72.79;98562.47;6213032;23;20043;-94
2022/03/31 07:08:21;;;;;;;32.03;18.55;;;;;;;5.46;73.86;98544.19;6265308;23;20020;-94
2022/03/31 07:10:59;;;;;;;30.90;17.70;;;;;;;5.90;74.53;98605.59;6266764;23;20089;-93
2022/03/31 07:14:05;;;;;;;30.45;17.92;;;;;;;5.63;71.39;98528.34;6260732;23;20043;-94
2022/03/31 07:17:11;;;;;;;31.17;18.40;;;;;;;5.81;72.80;98557.97;6245121;22;20023;-94
2022/03/31 07:19:49;;;;;;;29.42;18.02;;;;;;;5.99;71.59;98576.16;6271579;22;20023;-91
2022/03/31 07:25:40;;;;;;;30.05;18.58;;;;;;;5.91;72.26;98561.78;6263872;23;20187;-91
2022/03/31 07:28:26;;;;;;;32.22;18.98;;;;;;;5.90;70.81;98553.06;6268702;22;20020;-91
2022/03/31 07:31:14;;;;;;;31.65;18.23;;;;;;;6.04;71.88;98580.31;6263862;23;20020;-90
2022/03/31 07:34:07;;;;;;;29.08;18.75;;;;;;;5.78;72.46;98527.47;6262999;23;20039;-89
2022/03/31 07:37:25;;;;;;;32.72;19.40;;;;;;;5.90;73.04;98563.56;6257645;23;20082;-92
2022/03/31 07:40:09;;;;;;;31.08;18.55;;;;;;;5.65;72.33;98521.22;6253126;23;20027;-95
2022/03/31 07:43:01;;;;;;;31.23;18.38;;;;;;;6.02;72.21;98582.19;6246675;23;20036;-94
2022/03/31 07:46:33;;;;;;;31.15;18.65;;;;;;;5.61;71.97;98511.81;6255235;23;20020;-94
2022/03/31 07:49:46;;;;;;;32.17;18.42;;;;;;;5.77;72.04;98531.03;6111863;23;20455;-93
2022/03/31 07:53:09;;;;;;;32.35;19.42;;;;;;;6.03;71.22;98552.34;6250396;23;20051;-94
2022/03/31 07:55:50;;;;;;;;;;;;;;;6.36;71.11;98575.81;6255223;23;20446;-94
2022/03/31 07:58:32;;;;;;;32.08;18.98;;;;;;;6.33;70.57;98572.44;6256850;22;19990;-93
2022/03/31 08:01:18;;;;;;;30.73;19.35;;;;;;;6.31;71.39;98561.16;6257248;23;20469;-92
2022/03/31 08:04:12;;;;;;;31.85;18.10;;;;;;;6.54;70.52;98580.00;6265461;23;20012;-91
2022/03/31 08:07:40;;;;;;;31.15;17.58;;;;;;;6.46;70.46;98561.19;6235219;23;20111;-93
2022/03/31 08:10:51;;;;;;;29.33;18.35;;;;;;;6.48;68.79;98539.13;6256383;23;20043;-93
2022/03/31 08:14:00;;;;;;;28.27;18.15;;;;;;;6.76;67.41;98569.06;6258181;23;20176;-91
2022/03/31 08:16:50;;;;;;;34.15;19.63;;;;;;;6.80;68.62;98586.31;6271217;22;20020;-92
2022/03/31 08:19:32;;;;;;;31.42;19.63;;;;;;;6.93;68.16;98587.25;6270947;22;20008;-91
2022/03/31 08:22:26;;;;;;;30.70;19.13;;;;;;;6.79;68.25;98550.44;6236673;23;20005;-91
2022/03/31 08:25:35;;;;;;;30.38;18.50;;;;;;;6.72;67.64;98505.25;6215233;22;20035;-91
2022/03/31 08:28:22;;;;;;;31.75;18.85;;;;;;;7.03;66.05;98546.31;6226008;23;20016;-93
2022/03/31 08:31:06;;;;;;;31.65;19.42;;;;;;;7.14;65.40;98557.00;6178998;23;20051;-93
2022/03/31 08:33:54;;;;;;;33.22;19.50;;;;;;;7.23;66.19;98589.84;6227930;23;20016;-93
2022/03/31 08:36:51;;;;;;;32.70;19.58;;;;;;;7.16;66.42;98584.09;6251620;23;20020;-93
2022/03/31 08:39:36;;;;;;;32.15;19.38;;;;;;;7.28;66.41;98567.53;6217803;23;20474;-92
2022/03/31 08:42:26;;;;;;;31.25;18.60;;;;;;;7.42;65.95;98563.16;6227218;23;20082;-96
2022/03/31 08:45:15;;;;;;;29.77;19.80;;;;;;;7.45;65.04;98547.19;6228510;23;20095;-95
2022/03/31 08:48:17;;;;;;;28.73;19.13;;;;;;;7.63;63.99;98573.19;6215581;23;20021;-90
2022/03/31 08:50:47;;;;;;;29.77;18.73;;;;;;;7.57;64.85;98575.38;6232579;23;20044;-91
2022/03/31 08:53:35;;;;;;;31.90;18.95;;;;;;;7.64;64.53;98553.81;6231488;23;20023;-93
2022/03/31 08:56:10;;;;;;;30.70;18.98;;;;;;;7.74;63.75;98551.44;6241707;22;20031;-92
2022/03/31 08:58:50;;;;;;;32.90;20.38;;;;;;;7.79;64.06;98557.25;6262867;22;20051;-91
2022/03/31 09:01:41;;;;;;;29.55;18.52;;;;;;;7.75;64.99;98538.16;6234799;23;20024;-93
2022/03/31 09:05:06;;;;;;;32.50;19.40;;;;;;;7.76;63.67;98491.56;6261034;22;20020;-90
2022/03/31 09:07:59;;;;;;;29.23;19.00;;;;;;;7.90;62.86;98517.00;6226831;23;20036;-93
2022/03/31 09:10:49;;;;;;;29.50;19.10;;;;;;;8.34;63.44;98569.50;6251964;23;20023;-91
2022/03/31 09:13:56;;;;;;;30.17;18.35;;;;;;;8.01;62.46;98504.00;6281801;22;20005;-91
2022/03/31 09:16:40;;;;;;;33.53;20.38;;;;;;;8.69;61.52;98573.22;6244997;23;20020;-90
2022/03/31 09:19:29;;;;;;;30.55;19.75;;;;;;;8.55;61.15;98527.59;6221975;23;20021;-95
2022/03/31 09:22:29;;;;;;;31.92;19.80;;;;;;;8.51;62.07;98540.16;6213925;23;20023;-93
2022/03/31 09:25:50;;;;;;;30.08;18.77;;;;;;;8.64;62.21;98562.13;6219595;23;20025;-93
2022/03/31 09:29:28;;;;;;;31.65;18.90;;;;;;;8.73;62.02;98537.75;6219766;23;20027;-92
2022/03/31 09:32:26;;;;;;;30.33;19.33;;;;;;;9.02;60.71;98563.91;6234597;23;20048;-91
2022/03/31 09:35:17;;;;;;;29.67;19.67;;;;;;;9.12;60.32;98541.22;6224693;23;20048;-93
2022/03/31 09:38:14;;;;;;;32.15;19.73;;;;;;;9.35;59.70;98563.34;6225558;23;20017;-93
2022/03/31 09:40:57;;;;;;;29.63;18.70;;;;;;;8.91;60.14;98505.75;6229734;23;20091;-92
2022/03/31 09:44:06;;;;;;;28.90;19.30;;;;;;;8.97;60.12;98526.44;6216344;23;20004;-91
2022/03/31 09:46:58;;;;;;;;;;;;;;;9.15;59.62;98570.03;6233162;23;20557;-93
2022/03/31 09:49:39;;;;;;;31.67;19.88;;;;;;;8.85;59.77;98532.56;6221950;23;19916;-95
2022/03/31 09:52:45;;;;;;;30.42;20.08;;;;;;;9.00;60.96;98566.66;6227609;23;20031;-93
2022/03/31 09:55:38;;;;;;;33.33;20.00;;;;;;;8.57;61.81;98500.19;6229955;23;20016;-92
2022/03/31 09:58:46;;;;;;;30.75;19.70;;;;;;;8.86;61.36;98534.25;6258339;22;20047;-93
2022/03/31 10:02:07;;;;;;;32.20;19.92;;;;;;;8.78;61.08;98525.09;6258458;23;20023;-93
2022/03/31 10:04:54;;;;;;;28.65;19.05;;;;;;;8.75;62.80;98535.84;6214683;23;20027;-91
2022/03/31 10:07:35;;;;;;;29.17;19.77;;;;;;;8.79;62.30;98515.38;6237549;23;20032;-93
2022/03/31 10:10:46;;;;;;;32.95;20.92;;;;;;;9.05;60.68;98534.66;6264329;22;20020;-92
2022/03/31 10:13:30;;;;;;;33.00;20.25;;;;;;;8.83;61.26;98524.75;6263042;23;20074;-94
2022/03/31 10:17:17;;;;;;;33.67;20.73;;;;;;;8.74;62.25;98550.00;6235093;23;20004;-91
2022/03/31 10:20:10;;;;;;;31.58;19.40;;;;;;;8.41;62.58;98507.44;6172801;23;20024;-96
2022/03/31 10:26:28;;;;;;;31.58;20.17;;;;;;;8.04;62.96;98470.34;6253943;23;20020;-96
2022/03/31 10:29:57;;;;;;;32.47;19.88;;;;;;;8.23;63.99;98517.41;6231277;23;20031;-94
2022/03/31 10:33:29;;;;;;;32.95;20.92;;;;;;;8.25;65.08;98548.94;6260309;23;20023;-96
2022/03/31 10:37:17;;;;;;;31.48;20.65;;;;;;;8.17;65.55;98544.22;6132236;23;20057;-94
2022/03/31 10:41:16;;;;;;;32.47;21.17;;;;;;;7.54;65.91;98468.44;6191496;23;20032;-95
2022/03/31 10:45:13;;;;;;;31.63;20.73;;;;;;;7.55;67.00;98464.88;6161302;23;20082;-95
2022/03/31 10:48:39;;;;;;;32.67;21.38;;;;;;;7.82;65.92;98488.56;6093863;23;20044;-94
2022/03/31 10:52:28;;;;;;;32.08;20.27;;;;;;;7.87;65.97;98490.88;6148246;23;20017;-95
2022/03/31 10:55:50;;;;;;;33.28;21.33;;;;;;;8.05;65.06;98452.75;6132687;23;20032;-95
2022/03/31 10:58:33;;;;;;;32.17;20.88;;;;;;;8.56;64.67;98501.13;6177060;23;20040;-94
2022/03/31 11:09:59;;;;;;;30.83;19.05;;;;;;;9.93;60.38;98498.31;6279586;22;20016;-94
2022/03/31 11:12:38;;;;;;;30.58;19.80;;;;;;;9.71;58.15;98430.38;6290018;22;20036;-95
2022/03/31 11:15:45;;;;;;;;;;;;;;;;;;;;;
2022/03/31 11:18:45;;;;;;;31.02;19.60;;;;;;;10.03;57.10;98473.75;6287516;22;20034;-94
2022/03/31 11:21:45;;;;;;;29.95;19.55;;;;;;;9.54;57.96;98421.03;6194963;23;20025;-94
2022/03/31 11:24:56;;;;;;;30.27;19.58;;;;;;;9.92;59.59;98486.91;6185782;23;20060;-95
2022/03/31 11:28:02;;;;;;;30.00;19.50;;;;;;;9.93;58.16;98472.72;6173670;23;20051;-94
2022/03/31 11:31:17;;;;;;;30.30;19.33;;;;;;;9.77;58.57;98445.75;6193851;23;20055;-94
2022/03/31 11:34:36;;;;;;;27.17;18.83;;;;;;;10.24;57.71;98483.66;6203535;23;20160;-92
2022/03/31 11:38:16;;;;;;;28.30;19.25;;;;;;;10.23;56.78;98442.34;6171787;23;20049;-95
2022/03/31 11:41:00;;;;;;;27.80;18.65;;;;;;;10.54;56.85;98457.53;6258396;22;20023;-94
2022/03/31 11:44:02;;;;;;;27.80;18.77;;;;;;;10.78;56.62;98450.31;6257896;22;20012;-94
2022/03/31 11:46:47;;;;;;;29.10;18.40;;;;;;;10.74;55.99;98446.22;6283272;22;20012;-94
2022/03/31 11:49:24;;;;;;;30.92;19.85;;;;;;;10.53;55.74;98408.22;6258307;22;20030;-95
2022/03/31 11:52:50;;;;;;;30.73;19.15;;;;;;;10.47;55.92;98430.69;6287576;22;20110;-94
2022/03/31 11:55:32;;;;;;;28.30;19.42;;;;;;;10.40;57.65;98441.84;6288365;22;20058;-94
2022/03/31 11:58:12;;;;;;;29.45;19.17;;;;;;;10.69;55.86;98468.72;6289686;22;20026;-92
2022/03/31 12:01:14;;;;;;;29.35;19.63;;;;;;;10.45;56.11;98439.72;6190584;23;20064;-93
2022/03/31 12:04:27;;;;;;;28.95;19.13;;;;;;;10.78;55.06;98436.22;6188861;23;20044;-93
2022/03/31 12:07:37;;;;;;;28.83;20.05;;;;;;;10.88;55.79;98426.59;6189767;23;20045;-95
2022/03/31 12:10:24;;;;;;;25.95;18.05;;;;;;;11.29;53.58;98402.09;6175808;23;20045;-93
2022/03/31 12:13:09;;;;;;;28.20;17.80;;;;;;;11.70;53.20;98403.13;6196736;23;20032;-93
2022/03/31 12:19:00;;;;;;;;;;;;;;;12.32;51.31;98458.91;6268569;22;20035;-93
2022/03/31 12:21:51;;;;;;;26.05;17.92;;;;;;;12.17;51.22;98445.13;6266320;23;19915;-94
2022/03/31 12:24:39;;;;;;;26.33;17.92;;;;;;;11.99;52.17;98457.28;6201423;23;20052;-93
2022/03/31 12:31:22;;;;;;;25.00;17.52;;;;;;;12.26;52.31;98449.66;6190583;23;20056;-95
2022/03/31 12:35:21;;;;;;;26.88;17.88;;;;;;;12.19;53.21;98451.13;6134527;23;20068;-94
2022/03/31 12:38:37;;;;;;;26.65;18.25;;;;;;;11.92;54.54;98453.47;6209330;23;20043;-92
2022/03/31 12:41:33;;;;;;;24.77;17.88;;;;;;;11.62;54.40;98432.94;6205965;23;20075;-93
2022/03/31 12:44:17;;;;;;;;;;;;;;;11.69;55.86;98452.66;6210992;23;20041;-93
2022/03/31 12:47:07;;;;;;;26.48;17.63;;;;;;;11.09;55.35;98376.38;6208537;23;19924;-94
2022/03/31 12:50:00;;;;;;;27.63;18.45;;;;;;;11.12;56.77;98451.13;6190146;23;20017;-93
2022/03/31 12:53:16;;;;;;;26.35;18.02;;;;;;;10.82;58.76;98427.94;6187254;23;20051;-92
2022/03/31 12:59:18;;;;;;;29.48;19.08;;;;;;;10.68;60.94;98427.34;6281308;22;20015;-90
2022/03/31 13:08:51;;;;;;;25.35;17.65;;;;;;;10.44;61.08;98452.09;6287930;22;20033;31
2022/03/31 13:12:12;;;;;;;;;;;;;;;;;;;;;
2022/03/31 13:39:05;;;;;;;23.15;15.48;;;;;;;10.39;58.98;98374.06;6327640;22;20079;-96
2022/03/31 13:42:13;;;;;;;24.73;16.45;;;;;;;10.74;58.66;98435.63;6175638;23;20021;-93
2022/03/31 13:44:53;;;;;;;23.83;16.55;;;;;;;10.10;59.53;98369.16;6172761;23;20044;-95
2022/03/31 14:21:21;;;;;;;22.67;15.68;;;;;;;9.58;60.36;98361.75;6204218;23;20020;-91
2022/03/31 14:28:49;;;;;;;22.30;15.88;;;;;;;9.66;60.96;98364.63;6327718;22;20038;-95
2022/03/31 14:32:02;;;;;;;22.08;15.10;;;;;;;9.81;59.45;98379.31;6202670;23;20032;-93
2022/03/31 14:35:08;;;;;;;20.73;14.32;;;;;;;9.82;60.10;98377.53;6188979;22;20015;-94
2022/03/31 14:44:30;;;;;;;;;;;;;;;10.15;60.37;98416.44;6221397;22;20019;-91
2022/03/31 15:00:23;;;;;;;;;;;;;;;;;;;;;
2022/03/31 15:04:03;;;;;;;23.40;15.70;;;;;;;9.02;68.60;98385.25;6261456;23;20051;-93
2022/03/31 15:06:42;;;;;;;21.83;15.35;;;;;;;8.68;69.32;98346.38;6290280;22;20090;-94
2022/03/31 15:20:40;;;;;;;26.98;18.83;;;;;;;8.38;74.57;98404.78;6216536;23;20023;-92
2022/03/31 15:24:16;;;;;;;27.40;18.98;;;;;;;8.25;75.60;98388.97;6232441;23;20015;-95
2022/03/31 15:28:10;;;;;;;;;;;;;;;;;;;;;
2022/03/31 15:32:16;;;;;;;;;;;;;;;;;;;;;
2022/03/31 15:35:37;;;;;;;30.25;20.80;;;;;;;7.94;75.54;98355.13;6230786;23;20059;-96
2022/03/31 15:47:05;;;;;;;;;;;;;;;;;;;;;
2022/03/31 15:50:20;;;;;;;37.90;23.38;;;;;;;7.99;75.24;98350.38;6213322;23;20108;-93
2022/03/31 15:53:51;;;;;;;36.55;22.88;;;;;;;7.92;75.37;98344.66;6224365;23;20021;-94
2022/03/31 15:56:39;;;;;;;33.22;21.35;;;;;;;7.98;75.55;98362.72;6221785;23;20462;-93
2022/03/31 16:03:32;;;;;;;38.35;24.30;;;;;;;8.07;76.56;98400.75;6214199;23;20020;-92
2022/03/31 16:10:48;;;;;;;;;;;;;;;;;;;;;
2022/03/31 16:13:57;;;;;;;40.17;25.08;;;;;;;7.33;77.91;98346.94;6278923;22;20079;-92
2022/03/31 16:21:19;;;;;;;38.90;24.98;;;;;;;7.59;79.26;98418.06;6265213;23;20026;-94
2022/03/31 16:28:34;;;;;;;35.47;23.95;;;;;;;7.18;78.31;98358.47;6267131;23;20043;-94
2022/03/31 16:42:41;;;;;;;39.38;24.38;;;;;;;7.36;78.83;98427.50;6253569;23;20056;-95
2022/03/31 16:46:21;;;;;;;35.08;23.40;;;;;;;6.98;77.53;98385.22;6259738;22;20028;-96
2022/03/31 16:54:07;;;;;;;34.30;22.55;;;;;;;7.20;77.77;98443.44;6201917;23;20330;-95